createdAt,value
2019-03-17T00:01:23.482Z,4.60
2019-03-17T00:03:50.075Z,4.59
2019-03-17T00:06:16.677Z,4.56
2019-03-17T00:08:43.292Z,4.54
2019-03-17T00:11:09.896Z,4.49
2019-03-17T00:13:36.500Z,4.48
2019-03-17T00:16:03.232Z,4.45
2019-03-17T00:18:29.855Z,4.45
2019-03-17T00:20:56.541Z,4.43
2019-03-17T00:23:23.136Z,4.43
2019-03-17T00:25:49.751Z,4.41
2019-03-17T00:28:16.444Z,4.35
2019-03-17T00:30:43.044Z,4.32
2019-03-17T00:33:09.644Z,4.29
2019-03-17T00:35:36.257Z,4.25
2019-03-17T00:38:02.963Z,4.21
2019-03-17T00:40:29.677Z,4.18
2019-03-17T00:42:56.295Z,4.19
2019-03-17T00:45:22.921Z,4.17
2019-03-17T00:47:49.557Z,4.14
2019-03-17T00:50:16.244Z,4.13
2019-03-17T00:52:42.934Z,4.12
2019-03-17T00:55:29.055Z,4.06
2019-03-17T00:57:55.751Z,3.99
2019-03-17T01:00:22.347Z,3.91
2019-03-17T01:02:49.069Z,3.90
2019-03-17T01:05:16.060Z,3.91
2019-03-17T01:07:42.677Z,3.92
2019-03-17T01:10:28.764Z,3.94
2019-03-17T01:12:55.386Z,3.96
2019-03-17T01:15:22.014Z,3.98
2019-03-17T01:17:48.613Z,4.01
2019-03-17T01:20:15.223Z,4.03
2019-03-17T01:22:41.931Z,4.05
2019-03-17T01:25:13.050Z,4.07
2019-03-17T01:27:39.874Z,4.12
2019-03-17T01:30:06.704Z,4.18
2019-03-17T01:32:33.325Z,4.23
2019-03-17T01:35:09.193Z,4.30
2019-03-17T01:37:28.416Z,4.39
2019-03-17T01:39:55.114Z,4.44
2019-03-17T01:42:21.638Z,4.47
2019-03-17T01:44:48.348Z,4.50
2019-03-17T01:47:14.960Z,4.52
2019-03-17T01:49:41.682Z,4.54
2019-03-17T01:52:08.285Z,4.53
2019-03-17T01:54:35.025Z,4.53
2019-03-17T01:57:01.731Z,4.52
2019-03-17T01:59:28.461Z,4.50
2019-03-17T02:01:55.071Z,4.48
2019-03-17T02:04:21.782Z,4.45
2019-03-17T02:06:48.475Z,4.43
2019-03-17T02:09:15.073Z,4.43
2019-03-17T02:11:41.678Z,4.40
2019-03-17T02:14:08.281Z,4.38
2019-03-17T02:16:34.907Z,4.38
2019-03-17T02:19:01.595Z,4.37
2019-03-17T02:21:28.242Z,4.37
2019-03-17T02:23:54.956Z,4.40
2019-03-17T02:26:21.620Z,4.56
2019-03-17T02:28:48.235Z,4.71
2019-03-17T02:31:14.943Z,4.87
2019-03-17T02:33:41.591Z,5.01
2019-03-17T02:36:08.170Z,5.07
2019-03-17T02:38:34.870Z,5.12
2019-03-17T02:41:01.479Z,5.10
2019-03-17T02:43:28.174Z,5.00
2019-03-17T02:45:54.818Z,4.93
2019-03-17T02:48:21.429Z,4.83
2019-03-17T02:50:48.123Z,4.76
2019-03-17T02:53:14.746Z,4.69
2019-03-17T02:55:41.440Z,4.69
2019-03-17T02:58:08.154Z,4.68
2019-03-17T03:00:34.754Z,4.66
2019-03-17T03:03:01.375Z,4.63
2019-03-17T03:05:28.080Z,4.55
2019-03-17T03:07:54.824Z,4.50
2019-03-17T03:10:21.540Z,4.48
2019-03-17T03:12:48.214Z,4.44
2019-03-17T03:15:14.910Z,4.38
2019-03-17T03:17:41.604Z,4.31
2019-03-17T03:20:08.247Z,4.22
2019-03-17T03:22:34.934Z,4.14
2019-03-17T03:25:01.546Z,4.07
2019-03-17T03:27:28.169Z,3.99
2019-03-17T03:29:54.868Z,3.91
2019-03-17T03:32:21.468Z,3.85
2019-03-17T03:34:48.076Z,3.80
2019-03-17T03:37:14.772Z,3.75
2019-03-17T03:39:41.406Z,3.74
2019-03-17T03:42:08.101Z,3.69
2019-03-17T03:44:34.722Z,3.65
2019-03-17T03:47:01.318Z,3.65
2019-03-17T03:49:27.928Z,3.65
2019-03-17T03:51:54.632Z,3.61
2019-03-17T03:54:21.236Z,3.54
2019-03-17T03:56:47.954Z,3.51
2019-03-17T03:59:14.562Z,3.48
2019-03-17T04:01:41.190Z,3.46
2019-03-17T04:04:07.912Z,3.43
2019-03-17T04:06:34.565Z,3.39
2019-03-17T04:09:01.276Z,3.36
2019-03-17T04:11:27.889Z,3.32
2019-03-17T04:13:54.599Z,3.31
2019-03-17T04:16:21.281Z,3.29
2019-03-17T04:18:47.888Z,3.26
2019-03-17T04:21:14.581Z,3.22
2019-03-17T04:23:41.208Z,3.19
2019-03-17T04:26:07.804Z,3.16
2019-03-17T04:28:34.503Z,3.11
2019-03-17T04:31:01.123Z,3.07
2019-03-17T04:33:27.742Z,3.04
2019-03-17T04:35:54.355Z,3.02
2019-03-17T04:38:21.068Z,2.92
2019-03-17T04:40:47.765Z,2.87
2019-03-17T04:43:14.378Z,2.83
2019-03-17T04:45:40.973Z,2.75
2019-03-17T04:48:07.597Z,2.71
2019-03-17T04:50:34.287Z,2.68
2019-03-17T04:53:00.879Z,2.67
2019-03-17T04:55:27.494Z,2.67
2019-03-17T04:57:54.221Z,2.68
2019-03-17T05:00:20.928Z,2.72
2019-03-17T05:02:47.615Z,2.75
2019-03-17T05:05:14.246Z,2.79
2019-03-17T05:07:40.864Z,2.79
2019-03-17T05:10:27.051Z,2.76
2019-03-17T05:12:53.749Z,2.73
2019-03-17T05:15:20.339Z,2.75
2019-03-17T05:17:46.939Z,2.78
2019-03-17T05:20:13.553Z,2.83
2019-03-17T05:22:40.135Z,2.84
2019-03-17T05:25:06.765Z,2.83
2019-03-17T05:27:33.484Z,2.84
2019-03-17T05:30:00.171Z,2.83
2019-03-17T05:32:27.000Z,2.81
2019-03-17T05:34:53.612Z,2.77
2019-03-17T05:37:20.313Z,2.74
2019-03-17T05:39:46.921Z,2.70
2019-03-17T05:42:13.663Z,2.69
2019-03-17T05:44:40.267Z,2.69
2019-03-17T05:47:06.896Z,2.72
2019-03-17T05:49:33.607Z,2.74
2019-03-17T05:52:00.392Z,2.79
2019-03-17T05:54:27.040Z,2.86
2019-03-17T05:56:53.656Z,2.92
2019-03-17T05:59:20.261Z,2.98
2019-03-17T06:01:46.972Z,3.03
2019-03-17T06:04:13.620Z,3.08
2019-03-17T06:06:40.322Z,3.12
2019-03-17T06:09:06.937Z,3.17
2019-03-17T06:11:33.582Z,3.22
2019-03-17T06:14:00.304Z,3.29
2019-03-17T06:16:27.008Z,3.37
2019-03-17T06:18:53.620Z,3.43
2019-03-17T06:21:20.256Z,3.51
2019-03-17T06:23:46.936Z,3.59
2019-03-17T06:26:13.550Z,3.67
2019-03-17T06:28:40.270Z,3.76
2019-03-17T06:31:06.959Z,3.87
2019-03-17T06:33:33.551Z,4.00
2019-03-17T06:36:00.188Z,4.15
2019-03-17T06:38:26.822Z,4.29
2019-03-17T06:40:53.520Z,4.46
2019-03-17T06:43:20.127Z,4.65
2019-03-17T06:45:46.862Z,4.81
2019-03-17T06:48:13.459Z,4.99
2019-03-17T06:50:40.084Z,5.14
2019-03-17T06:53:06.685Z,5.29
2019-03-17T06:55:33.388Z,5.41
2019-03-17T06:58:00.004Z,5.52
2019-03-17T07:00:26.717Z,5.63
2019-03-17T07:02:53.323Z,5.77
2019-03-17T07:05:20.041Z,6.14
2019-03-17T07:07:46.675Z,6.60
2019-03-17T07:10:32.776Z,6.83
2019-03-17T07:12:59.483Z,7.01
2019-03-17T07:15:26.191Z,7.16
2019-03-17T07:17:52.894Z,7.37
2019-03-17T07:20:19.510Z,7.58
2019-03-17T07:22:46.113Z,7.75
2019-03-17T07:25:32.195Z,8.00
2019-03-17T07:27:58.870Z,8.31
2019-03-17T07:30:25.473Z,8.61
2019-03-17T07:32:52.083Z,8.75
2019-03-17T07:35:18.805Z,8.77
2019-03-17T07:37:56.395Z,8.79
2019-03-17T07:40:20.498Z,8.82
2019-03-17T07:42:47.181Z,8.87
2019-03-17T07:45:13.786Z,8.93
2019-03-17T07:47:40.406Z,9.02
2019-03-17T07:50:07.673Z,9.11
2019-03-17T07:52:34.383Z,9.24
2019-03-17T07:55:00.976Z,9.35
2019-03-17T07:57:27.565Z,9.44
2019-03-17T07:59:54.181Z,9.53
2019-03-17T08:02:20.784Z,9.62
2019-03-17T08:04:47.440Z,9.72
2019-03-17T08:07:14.092Z,9.81
2019-03-17T08:09:40.715Z,9.88
2019-03-17T08:12:07.313Z,9.98
2019-03-17T08:14:33.923Z,10.06
2019-03-17T08:17:00.516Z,10.13
2019-03-17T08:19:27.143Z,10.22
2019-03-17T08:21:53.813Z,10.37
2019-03-17T08:24:20.427Z,10.57
2019-03-17T08:26:49.943Z,10.81
2019-03-17T08:29:15.532Z,11.00
2019-03-17T08:31:42.164Z,11.19
2019-03-17T08:34:08.744Z,11.39
2019-03-17T08:36:35.406Z,11.60
2019-03-17T08:39:02.290Z,11.79
2019-03-17T08:41:28.919Z,12.03
2019-03-17T08:43:55.544Z,12.22
2019-03-17T08:46:22.158Z,12.39
2019-03-17T08:48:48.764Z,12.53
2019-03-17T08:51:15.507Z,12.64
2019-03-17T08:53:42.178Z,12.74
2019-03-17T08:56:08.812Z,12.86
2019-03-17T08:58:35.426Z,12.95
2019-03-17T09:01:02.038Z,13.03
2019-03-17T09:03:28.762Z,13.21
2019-03-17T09:05:55.476Z,13.34
2019-03-17T09:08:33.963Z,13.47
2019-03-17T09:10:56.881Z,13.59
2019-03-17T09:13:23.496Z,13.70
2019-03-17T09:15:50.106Z,13.90
2019-03-17T09:18:16.837Z,14.06
2019-03-17T09:20:43.442Z,14.26
2019-03-17T09:23:10.180Z,14.42
2019-03-17T09:25:36.861Z,14.58
2019-03-17T09:28:03.499Z,14.71
2019-03-17T09:30:30.209Z,14.82
2019-03-17T09:32:56.828Z,14.94
2019-03-17T09:35:23.571Z,15.04
2019-03-17T09:37:50.305Z,15.12
2019-03-17T09:40:16.750Z,15.24
2019-03-17T09:42:43.412Z,15.36
2019-03-17T09:45:10.119Z,15.54
2019-03-17T09:47:36.924Z,15.76
2019-03-17T09:50:03.921Z,15.99
2019-03-17T09:52:30.627Z,16.14
2019-03-17T09:54:57.347Z,16.34
2019-03-17T09:57:23.965Z,16.52
2019-03-17T09:59:50.685Z,16.61
2019-03-17T10:02:17.301Z,16.70
2019-03-17T10:04:43.909Z,16.80
2019-03-17T10:07:10.539Z,16.88
2019-03-17T10:09:37.267Z,16.96
2019-03-17T10:12:03.901Z,17.06
2019-03-17T10:14:30.510Z,17.09
2019-03-17T10:16:57.176Z,17.16
2019-03-17T10:19:23.873Z,17.23
2019-03-17T10:21:50.479Z,17.23
2019-03-17T10:24:17.103Z,17.35
2019-03-17T10:26:43.737Z,17.45
2019-03-17T10:29:10.400Z,17.54
2019-03-17T10:31:37.029Z,17.61
2019-03-17T10:34:03.747Z,17.65
2019-03-17T10:36:30.467Z,17.73
2019-03-17T10:38:57.176Z,17.90
2019-03-17T10:41:23.876Z,18.16
2019-03-17T10:43:50.479Z,18.48
2019-03-17T10:46:17.110Z,18.72
2019-03-17T10:48:43.820Z,18.82
2019-03-17T10:51:10.562Z,18.97
2019-03-17T10:53:37.269Z,19.09
2019-03-17T10:56:03.996Z,19.36
2019-03-17T10:58:30.630Z,19.68
2019-03-17T11:00:57.272Z,20.04
2019-03-17T11:03:23.891Z,20.29
2019-03-17T11:05:50.526Z,20.42
2019-03-17T11:08:17.165Z,20.48
2019-03-17T11:10:43.932Z,20.61
2019-03-17T11:13:10.542Z,20.60
2019-03-17T11:15:37.201Z,20.68
2019-03-17T11:18:03.890Z,20.81
2019-03-17T11:20:30.488Z,20.91
2019-03-17T11:22:57.128Z,21.21
2019-03-17T11:25:23.839Z,21.22
2019-03-17T11:27:50.444Z,21.34
2019-03-17T11:30:17.066Z,21.51
2019-03-17T11:32:43.760Z,21.59
2019-03-17T11:35:10.380Z,21.71
2019-03-17T11:37:37.058Z,21.86
2019-03-17T11:40:04.449Z,22.02
2019-03-17T11:42:31.150Z,22.13
2019-03-17T11:44:57.752Z,22.22
2019-03-17T11:47:24.366Z,22.51
2019-03-17T11:49:51.080Z,22.82
2019-03-17T11:52:17.776Z,23.10
2019-03-17T11:54:44.490Z,23.27
2019-03-17T11:57:11.109Z,23.36
2019-03-17T11:59:37.840Z,23.43
2019-03-17T12:02:04.455Z,23.32
2019-03-17T12:04:31.169Z,23.35
2019-03-17T12:06:57.777Z,23.40
2019-03-17T12:09:29.416Z,23.36
2019-03-17T12:12:02.897Z,23.41
2019-03-17T12:14:29.626Z,23.63
2019-03-17T12:16:56.229Z,23.82
2019-03-17T12:19:22.863Z,24.01
2019-03-17T12:21:49.487Z,23.74
2019-03-17T12:24:16.580Z,23.64
2019-03-17T12:26:43.265Z,23.60
2019-03-17T12:29:09.879Z,23.61
2019-03-17T12:31:36.477Z,23.56
2019-03-17T12:34:03.095Z,23.86
2019-03-17T12:36:29.794Z,24.10
2019-03-17T12:38:56.490Z,24.08
2019-03-17T12:41:23.215Z,24.28
2019-03-17T12:43:49.929Z,24.57
2019-03-17T12:46:16.640Z,24.90
2019-03-17T12:48:43.249Z,25.00
2019-03-17T12:51:09.878Z,25.08
2019-03-17T12:53:36.492Z,25.23
2019-03-17T12:56:03.123Z,25.14
2019-03-17T12:58:29.740Z,25.04
2019-03-17T13:00:56.465Z,24.86
2019-03-17T13:03:23.101Z,24.72
2019-03-17T13:05:49.821Z,24.39
2019-03-17T13:08:16.536Z,24.47
2019-03-17T13:10:43.218Z,24.56
2019-03-17T13:13:09.832Z,24.69
2019-03-17T13:15:36.447Z,24.98
2019-03-17T13:18:03.157Z,25.12
2019-03-17T13:20:30.134Z,25.34
2019-03-17T13:23:04.885Z,25.62
2019-03-17T13:25:31.607Z,25.89
2019-03-17T13:27:58.373Z,26.08
2019-03-17T13:30:25.072Z,26.24
2019-03-17T13:32:51.690Z,26.32
2019-03-17T13:35:18.335Z,26.44
2019-03-17T13:37:45.059Z,26.47
2019-03-17T13:40:31.255Z,26.48
2019-03-17T13:42:57.986Z,26.39
2019-03-17T13:45:24.605Z,26.42
2019-03-17T13:47:52.968Z,26.41
2019-03-17T13:50:26.334Z,26.32
2019-03-17T13:52:53.062Z,26.25
2019-03-17T13:55:19.626Z,26.23
2019-03-17T13:57:46.576Z,25.80
2019-03-17T14:00:13.941Z,25.08
2019-03-17T14:02:40.655Z,24.84
2019-03-17T14:05:07.382Z,24.79
2019-03-17T14:07:34.130Z,24.59
2019-03-17T14:10:12.633Z,24.55
2019-03-17T14:12:35.901Z,24.49
2019-03-17T14:15:02.740Z,24.41
2019-03-17T14:17:29.429Z,23.77
2019-03-17T14:19:56.071Z,23.65
2019-03-17T14:22:22.769Z,23.55
2019-03-17T14:24:49.505Z,23.32
2019-03-17T14:27:16.281Z,23.22
2019-03-17T14:29:42.919Z,23.49
2019-03-17T14:32:09.600Z,23.47
2019-03-17T14:34:36.315Z,23.40
2019-03-17T14:37:03.035Z,23.12
2019-03-17T14:39:29.657Z,23.10
2019-03-17T14:41:56.380Z,23.33
2019-03-17T14:44:23.010Z,23.55
2019-03-17T14:46:49.748Z,23.65
2019-03-17T14:49:16.473Z,23.69
2019-03-17T14:51:43.200Z,23.71
2019-03-17T14:54:09.831Z,24.02
2019-03-17T14:56:36.515Z,23.92
2019-03-17T14:59:03.221Z,23.83
2019-03-17T15:01:29.852Z,23.88
2019-03-17T15:03:56.485Z,23.90
2019-03-17T15:06:23.119Z,23.94
2019-03-17T15:08:49.762Z,23.79
2019-03-17T15:11:16.473Z,23.84
2019-03-17T15:13:43.174Z,23.57
2019-03-17T15:16:09.791Z,23.55
2019-03-17T15:18:36.526Z,23.67
2019-03-17T15:21:03.238Z,23.80
2019-03-17T15:23:29.894Z,23.73
2019-03-17T15:25:56.600Z,23.65
2019-03-17T15:28:23.218Z,23.49
2019-03-17T15:31:05.758Z,23.40
2019-03-17T15:33:24.871Z,23.21
2019-03-17T15:35:51.502Z,23.10
2019-03-17T15:38:18.120Z,23.01
2019-03-17T15:40:44.784Z,22.85
2019-03-17T15:43:11.492Z,22.77
2019-03-17T15:45:38.112Z,22.66
2019-03-17T15:48:04.811Z,22.28
2019-03-17T15:50:31.448Z,22.13
2019-03-17T15:52:58.186Z,21.60
2019-03-17T15:55:24.958Z,21.48
2019-03-17T15:57:51.573Z,21.18
2019-03-17T16:00:25.060Z,21.15
2019-03-17T16:02:56.725Z,20.98
2019-03-17T16:05:23.345Z,20.40
2019-03-17T16:07:50.066Z,20.29
2019-03-17T16:10:17.289Z,20.10
2019-03-17T16:12:44.015Z,19.90
2019-03-17T16:15:10.778Z,19.55
2019-03-17T16:17:37.398Z,19.27
2019-03-17T16:20:04.143Z,19.14
2019-03-17T16:22:30.790Z,18.74
2019-03-17T16:24:57.519Z,18.39
2019-03-17T16:27:24.236Z,17.89
2019-03-17T16:29:50.879Z,17.40
2019-03-17T16:32:17.587Z,17.13
2019-03-17T16:34:44.285Z,16.86
2019-03-17T16:37:10.939Z,16.68
2019-03-17T16:39:37.544Z,16.47
2019-03-17T16:42:04.161Z,16.32
2019-03-17T16:44:30.769Z,16.11
2019-03-17T16:46:57.751Z,15.96
2019-03-17T16:49:24.469Z,15.84
2019-03-17T16:51:51.198Z,15.72
2019-03-17T16:54:17.946Z,15.58
2019-03-17T16:56:44.654Z,15.41
2019-03-17T16:59:11.369Z,15.29
2019-03-17T17:01:38.061Z,15.17
2019-03-17T17:04:04.709Z,15.12
2019-03-17T17:06:31.309Z,15.02
2019-03-17T17:08:57.942Z,14.90
2019-03-17T17:11:24.641Z,14.82
2019-03-17T17:13:51.253Z,14.75
2019-03-17T17:16:17.991Z,14.67
2019-03-17T17:18:44.671Z,14.59
2019-03-17T17:21:11.322Z,14.50
2019-03-17T17:23:37.919Z,14.42
2019-03-17T17:26:04.585Z,14.40
2019-03-17T17:28:31.198Z,14.31
2019-03-17T17:30:57.946Z,14.24
2019-03-17T17:33:24.557Z,14.21
2019-03-17T17:35:51.179Z,14.17
2019-03-17T17:38:17.782Z,14.12
2019-03-17T17:40:44.420Z,14.10
2019-03-17T17:43:11.052Z,14.06
2019-03-17T17:45:37.821Z,14.03
2019-03-17T17:48:04.546Z,14.02
2019-03-17T17:50:31.204Z,14.03
2019-03-17T17:52:57.926Z,14.02
2019-03-17T17:55:24.546Z,14.04
2019-03-17T17:57:52.877Z,13.93
2019-03-17T18:03:19.881Z,13.26
2019-03-17T18:05:46.584Z,13.01
2019-03-17T18:08:13.234Z,12.87
2019-03-17T18:10:39.944Z,12.66
2019-03-17T18:13:06.717Z,12.45
2019-03-17T18:15:33.408Z,12.21
2019-03-17T18:18:00.029Z,11.57
2019-03-17T18:20:26.653Z,11.15
2019-03-17T18:22:53.392Z,10.61
2019-03-17T18:25:20.107Z,10.15
2019-03-17T18:27:46.849Z,9.82
2019-03-17T18:30:14.008Z,9.48
2019-03-17T18:32:40.631Z,9.19
2019-03-17T18:35:07.309Z,8.90
2019-03-17T18:37:33.977Z,8.55
2019-03-17T18:40:00.695Z,8.13
2019-03-17T18:42:33.098Z,7.98
2019-03-17T18:45:02.506Z,7.91
2019-03-17T18:47:34.679Z,7.80
2019-03-17T18:50:01.390Z,7.65
2019-03-17T18:52:28.098Z,7.59
2019-03-17T18:54:54.735Z,7.45
2019-03-17T18:57:21.437Z,7.26
2019-03-17T18:59:48.161Z,7.15
2019-03-17T19:02:14.958Z,7.06
2019-03-17T19:04:41.710Z,6.90
2019-03-17T19:07:08.383Z,6.53
2019-03-17T19:09:35.028Z,6.47
2019-03-17T19:12:01.814Z,6.35
2019-03-17T19:14:28.531Z,6.23
2019-03-17T19:16:55.257Z,6.12
2019-03-17T19:19:21.890Z,5.91
2019-03-17T19:21:48.650Z,5.86
2019-03-17T19:24:15.317Z,5.72
2019-03-17T19:26:42.151Z,5.66
2019-03-17T19:29:08.787Z,5.42
2019-03-17T19:31:35.578Z,5.31
2019-03-17T19:34:02.316Z,5.20
2019-03-17T19:36:28.961Z,5.11
2019-03-17T19:38:55.717Z,5.06
2019-03-17T19:41:22.423Z,5.02
2019-03-17T19:43:49.160Z,5.01
2019-03-17T19:46:18.433Z,4.95
2019-03-17T19:48:44.329Z,4.95
2019-03-17T19:51:10.967Z,4.91
2019-03-17T19:53:37.723Z,4.86
2019-03-17T19:56:04.344Z,4.81
2019-03-17T19:58:31.087Z,4.76
2019-03-17T20:00:57.840Z,4.77
2019-03-17T20:03:24.569Z,4.81
2019-03-17T20:06:01.635Z,4.81
2019-03-17T20:08:19.793Z,4.82
2019-03-17T20:10:46.485Z,4.86
2019-03-17T20:13:13.183Z,4.87
2019-03-17T20:15:39.903Z,4.88
2019-03-17T20:18:06.722Z,4.83
2019-03-17T20:20:33.362Z,4.71
2019-03-17T20:23:00.145Z,4.65
2019-03-17T20:25:26.891Z,4.58
2019-03-17T20:27:53.641Z,4.55
2019-03-17T20:30:20.322Z,4.60
2019-03-17T20:32:47.068Z,4.67
2019-03-17T20:35:13.731Z,4.67
2019-03-17T20:37:40.497Z,4.68
2019-03-17T20:40:11.840Z,4.60
2019-03-17T20:42:39.127Z,4.60
2019-03-17T20:45:06.302Z,4.62
2019-03-17T20:47:33.077Z,4.62
2019-03-17T20:49:59.931Z,4.67
2019-03-17T20:52:26.641Z,4.74
2019-03-17T20:54:53.281Z,4.68
2019-03-17T20:57:19.906Z,4.64
2019-03-17T20:59:46.547Z,4.49
2019-03-17T21:02:13.280Z,4.49
2019-03-17T21:04:39.953Z,4.49
2019-03-17T21:07:07.119Z,4.44
2019-03-17T21:09:33.839Z,4.39
2019-03-17T21:12:00.567Z,4.33
2019-03-17T21:14:27.293Z,4.25
2019-03-17T21:16:54.055Z,4.22
2019-03-17T21:19:20.769Z,4.24
2019-03-17T21:21:47.504Z,4.24
2019-03-17T21:24:14.150Z,4.25
2019-03-17T21:26:40.906Z,4.32
2019-03-17T21:29:07.628Z,4.28
2019-03-17T21:31:34.390Z,4.27
2019-03-17T21:34:01.102Z,4.29
2019-03-17T21:36:27.743Z,4.34
2019-03-17T21:38:54.458Z,4.36
2019-03-17T21:41:21.176Z,4.41
2019-03-17T21:43:58.878Z,4.45
2019-03-17T21:46:16.329Z,4.44
2019-03-17T21:48:42.967Z,4.44
2019-03-17T21:51:09.703Z,4.44
2019-03-17T21:53:36.316Z,4.42
2019-03-17T21:56:02.951Z,4.42
2019-03-17T21:58:29.684Z,4.42
2019-03-17T22:00:56.402Z,4.45
2019-03-17T22:03:23.069Z,4.45
2019-03-17T22:05:49.787Z,4.45
2019-03-17T22:08:16.578Z,4.46
2019-03-17T22:10:43.317Z,4.47
2019-03-17T22:13:09.979Z,4.48
2019-03-17T22:15:36.670Z,4.49
2019-03-17T22:18:03.445Z,4.47
2019-03-17T22:20:30.149Z,4.48
2019-03-17T22:22:56.880Z,4.51
2019-03-17T22:25:23.577Z,4.53
2019-03-17T22:27:50.190Z,4.53
2019-03-17T22:30:16.842Z,4.55
2019-03-17T22:32:43.555Z,4.56
2019-03-17T22:35:10.282Z,4.58
2019-03-17T22:37:37.019Z,4.63
2019-03-17T22:40:04.251Z,4.60
2019-03-17T22:42:30.970Z,4.57
2019-03-17T22:44:57.674Z,4.55
2019-03-17T22:47:24.297Z,4.58
2019-03-17T22:49:51.026Z,4.59
2019-03-17T22:52:17.740Z,4.62
2019-03-17T22:54:44.339Z,4.67
2019-03-17T22:57:11.075Z,4.69
2019-03-17T22:59:37.799Z,4.67
2019-03-17T23:02:04.401Z,4.69
2019-03-17T23:04:31.024Z,4.70
2019-03-17T23:06:58.695Z,4.70
2019-03-17T23:09:25.340Z,4.66
2019-03-17T23:11:52.059Z,4.63
2019-03-17T23:14:18.684Z,4.61
2019-03-17T23:16:45.292Z,4.58
2019-03-17T23:19:14.505Z,4.58
2019-03-17T23:21:41.118Z,4.55
2019-03-17T23:24:07.753Z,4.51
2019-03-17T23:26:34.355Z,4.53
2019-03-17T23:29:01.096Z,4.49
2019-03-17T23:31:27.714Z,4.45
2019-03-17T23:33:54.420Z,4.45
2019-03-17T23:36:21.111Z,4.44
2019-03-17T23:38:47.717Z,4.44
2019-03-17T23:41:14.327Z,4.39
2019-03-17T23:43:40.977Z,4.39
2019-03-17T23:46:07.655Z,4.41
2019-03-17T23:48:34.400Z,4.43
2019-03-17T23:51:01.098Z,4.43
2019-03-17T23:53:27.718Z,4.41
2019-03-17T23:55:54.417Z,4.37
2019-03-17T23:58:21.115Z,4.33
